Time;durP1;ratioP1;P1;durP2;ratioP2;P2;SDS_P1;SDS_P2;PMS_P1;PMS_P2;Temp;Humidity;BMP_temperature;BMP_pressure;BME280_temperature;BME280_humidity;BME280_pressure;Samples;Min_cycle;Max_cycle;Signal;HPM_P1;HPM_P2
2022/12/18 00:02:21;;;;;;;17.42;10.77;;;;;;;;;;5050206;28;20033;-79
2022/12/18 00:04:48;;;;;;;11.95;7.70;;;;;;;;;;5044701;28;20072;-76
2022/12/18 00:07:14;;;;;;;15.05;7.82;;;;;;;;;;5036691;28;20033;-77
2022/12/18 00:09:41;;;;;;;13.18;7.70;;;;;;;;;;5059151;28;20029;-79
2022/12/18 00:12:08;;;;;;;12.57;6.57;;;;;;;;;;5051255;28;20033;-77
2022/12/18 00:14:34;;;;;;;9.68;6.43;;;;;;;;;;5051586;28;20057;-76
2022/12/18 00:17:00;;;;;;;11.75;6.10;;;;;;;;;;5044631;28;20025;-78
2022/12/18 00:19:26;;;;;;;11.90;6.95;;;;;;;;;;5044060;28;20021;-77
2022/12/18 00:21:53;;;;;;;12.32;5.85;;;;;;;;;;5049066;28;20029;-77
2022/12/18 00:24:19;;;;;;;8.23;5.05;;;;;;;;;;5046016;28;20021;-76
2022/12/18 00:26:45;;;;;;;10.10;4.78;;;;;;;;;;5060807;28;20037;-77
2022/12/18 00:29:14;;;;;;;8.68;5.07;;;;;;;;;;5042678;28;20033;-77
2022/12/18 00:31:41;;;;;;;7.82;4.30;;;;;;;;;;5044885;28;20029;-76
2022/12/18 00:34:07;;;;;;;7.15;3.17;;;;;;;;;;5040173;28;20025;-78
2022/12/18 00:36:34;;;;;;;5.90;3.00;;;;;;;;;;5041839;28;20022;-77
2022/12/18 00:39:01;;;;;;;8.35;3.45;;;;;;;;;;5034380;28;20081;-81
2022/12/18 00:44:13;;;;;;;7.30;3.45;;;;;;;;;;5036109;28;20103;-76
2022/12/18 00:46:39;;;;;;;5.25;3.30;;;;;;;;;;5031009;28;20022;-77
2022/12/18 00:49:06;;;;;;;5.15;3.20;;;;;;;;;;5039000;28;20028;-76
2022/12/18 00:51:32;;;;;;;5.47;3.20;;;;;;;;;;5044684;28;20022;-77
2022/12/18 00:53:58;;;;;;;4.40;3.10;;;;;;;;;;5041189;28;20109;-76
2022/12/18 00:56:24;;;;;;;5.25;3.13;;;;;;;;;;5048509;28;20024;-77
2022/12/18 00:58:50;;;;;;;6.18;2.85;;;;;;;;;;5047075;28;20030;-78
2022/12/18 01:01:17;;;;;;;8.30;3.22;;;;;;;;;;5052460;28;20036;-79
2022/12/18 01:03:45;;;;;;;5.45;2.92;;;;;;;;;;5041491;28;20021;-77
2022/12/18 01:06:12;;;;;;;5.55;2.60;;;;;;;;;;5028063;28;20017;-78
2022/12/18 01:08:38;;;;;;;5.97;2.60;;;;;;;;;;5045129;28;20486;-79
2022/12/18 01:11:11;;;;;;;6.53;3.45;;;;;;;;;;5046871;28;20060;-77
2022/12/18 01:13:38;;;;;;;4.20;3.15;;;;;;;;;;5051262;28;20090;-77
2022/12/18 01:16:04;;;;;;;6.00;2.45;;;;;;;;;;5043674;28;20027;-77
2022/12/18 01:18:30;;;;;;;5.68;2.47;;;;;;;;;;5047759;28;20022;-77
2022/12/18 01:20:56;;;;;;;2.60;2.08;;;;;;;;;;5048635;28;20026;-78
2022/12/18 01:23:22;;;;;;;3.60;2.17;;;;;;;;;;5036695;28;20021;-78
2022/12/18 01:25:48;;;;;;;5.45;2.42;;;;;;;;;;5048898;28;20030;-76
2022/12/18 01:28:14;;;;;;;6.55;2.58;;;;;;;;;;5046705;28;20048;-81
2022/12/18 01:30:41;;;;;;;4.40;2.80;;;;;;;;;;5048391;28;20029;-76
2022/12/18 01:33:07;;;;;;;4.95;3.35;;;;;;;;;;5044845;28;20033;-79
2022/12/18 01:35:35;;;;;;;5.60;2.75;;;;;;;;;;5061094;28;20056;-77
2022/12/18 01:38:02;;;;;;;4.78;2.80;;;;;;;;;;5041627;28;20026;-79
2022/12/18 01:40:28;;;;;;;4.63;2.55;;;;;;;;;;5049144;28;20033;-77
2022/12/18 01:42:54;;;;;;;4.18;2.28;;;;;;;;;;5033861;28;20022;-77
2022/12/18 01:45:28;;;;;;;6.93;3.67;;;;;;;;;;5039944;28;20021;-76
2022/12/18 01:47:58;;;;;;;2.90;2.20;;;;;;;;;;5044156;28;20451;-77
2022/12/18 01:50:26;;;;;;;3.67;2.30;;;;;;;;;;5051628;28;20025;-77
2022/12/18 01:52:53;;;;;;;5.18;2.35;;;;;;;;;;5040294;28;20529;-76
2022/12/18 01:55:21;;;;;;;5.10;2.50;;;;;;;;;;5044239;28;20030;-76
2022/12/18 01:57:47;;;;;;;7.28;2.80;;;;;;;;;;5035972;28;20055;-77
2022/12/18 02:00:16;;;;;;;6.05;3.28;;;;;;;;;;5058017;28;20037;-77
2022/12/18 02:02:43;;;;;;;6.85;2.70;;;;;;;;;;5036309;28;20109;-78
2022/12/18 02:05:10;;;;;;;5.35;2.45;;;;;;;;;;5044248;28;20024;-78
2022/12/18 02:07:56;;;;;;;4.97;2.75;;;;;;;;;;5056609;28;20029;-78
2022/12/18 02:10:36;;;;;;;3.75;2.67;;;;;;;;;;5029752;28;20061;-78
2022/12/18 02:13:02;;;;;;;9.70;2.97;;;;;;;;;;5055403;28;20048;-76
2022/12/18 02:15:32;;;;;;;4.40;3.03;;;;;;;;;;5044747;28;20026;-76
2022/12/18 02:18:24;;;;;;;5.60;2.60;;;;;;;;;;5044390;28;20511;-77
2022/12/18 02:21:05;;;;;;;4.57;2.30;;;;;;;;;;5035555;28;20109;-77
2022/12/18 02:23:40;;;;;;;4.85;2.45;;;;;;;;;;5036360;28;20026;-79
2022/12/18 02:26:20;;;;;;;3.78;1.95;;;;;;;;;;5041127;28;20033;-76
2022/12/18 02:28:48;;;;;;;5.28;2.45;;;;;;;;;;5038063;28;20033;-76
2022/12/18 02:31:16;;;;;;;5.70;2.80;;;;;;;;;;5044940;28;20029;-77
2022/12/18 02:33:43;;;;;;;2.70;1.90;;;;;;;;;;5040582;28;20030;-76
2022/12/18 02:36:11;;;;;;;7.97;2.20;;;;;;;;;;5047314;28;20064;-76
2022/12/18 02:38:37;;;;;;;7.40;2.45;;;;;;;;;;5033597;28;20026;-77
2022/12/18 02:41:03;;;;;;;5.65;2.15;;;;;;;;;;5044309;28;20081;-76
2022/12/18 02:43:30;;;;;;;2.90;1.90;;;;;;;;;;5024732;28;20606;-76
2022/12/18 02:45:57;;;;;;;5.18;2.75;;;;;;;;;;5040618;28;20021;-77
2022/12/18 02:48:31;;;;;;;5.75;2.22;;;;;;;;;;5032248;28;20022;-76
2022/12/18 02:51:07;;;;;;;2.97;2.00;;;;;;;;;;5055961;28;20067;-77
2022/12/18 02:53:51;;;;;;;3.28;1.95;;;;;;;;;;5053142;28;20056;-79
2022/12/18 02:56:20;;;;;;;6.00;2.53;;;;;;;;;;5054394;28;20017;-77
2022/12/18 02:58:46;;;;;;;6.63;2.50;;;;;;;;;;5049805;28;20052;-80
2022/12/18 03:01:28;;;;;;;6.00;2.55;;;;;;;;;;5055986;28;20037;-78
2022/12/18 03:04:01;;;;;;;5.72;2.10;;;;;;;;;;5052301;28;20026;-79
2022/12/18 03:06:30;;;;;;;4.78;2.10;;;;;;;;;;5038226;28;20095;-78
2022/12/18 03:09:01;;;;;;;2.78;2.15;;;;;;;;;;5039313;28;20052;-79
2022/12/18 03:14:15;;;;;;;4.55;2.30;;;;;;;;;;5047408;28;20036;-77
2022/12/18 03:16:42;;;;;;;5.63;3.45;;;;;;;;;;5049439;28;20033;-76
2022/12/18 03:19:11;;;;;;;3.10;2.15;;;;;;;;;;5064457;28;20025;-77
2022/12/18 03:21:46;;;;;;;3.13;1.83;;;;;;;;;;5048439;28;20025;-76
2022/12/18 03:24:12;;;;;;;5.78;3.05;;;;;;;;;;5045287;28;20046;-78
2022/12/18 03:26:40;;;;;;;4.55;1.98;;;;;;;;;;5049069;28;20026;-79
2022/12/18 03:29:13;;;;;;;7.25;3.00;;;;;;;;;;5048776;28;20013;-78
2022/12/18 03:31:41;;;;;;;4.85;2.92;;;;;;;;;;5041906;28;20081;-77
2022/12/18 03:34:12;;;;;;;6.15;2.25;;;;;;;;;;5048564;28;20053;-77
2022/12/18 03:36:38;;;;;;;3.33;1.73;;;;;;;;;;5046877;28;20022;-77
2022/12/18 03:39:04;;;;;;;2.53;2.00;;;;;;;;;;5041016;28;20103;-77
2022/12/18 03:41:53;;;;;;;3.38;2.22;;;;;;;;;;5045164;28;20027;-75
2022/12/18 03:44:22;;;;;;;5.05;2.35;;;;;;;;;;5044421;28;20021;-76
2022/12/18 03:46:55;;;;;;;5.80;2.92;;;;;;;;;;5054767;28;20025;-76
2022/12/18 03:49:30;;;;;;;4.75;2.45;;;;;;;;;;5055593;28;20022;-77
2022/12/18 03:52:15;;;;;;;4.82;3.00;;;;;;;;;;5037277;28;20017;-79
2022/12/18 03:54:42;;;;;;;5.05;2.80;;;;;;;;;;5045107;28;20029;-75
2022/12/18 03:57:17;;;;;;;9.95;3.30;;;;;;;;;;5050432;28;20075;-78
2022/12/18 03:59:44;;;;;;;5.25;2.75;;;;;;;;;;5044217;28;20068;-77
2022/12/18 04:02:11;;;;;;;6.78;3.15;;;;;;;;;;5027814;28;20040;-78
2022/12/18 04:04:38;;;;;;;13.77;3.15;;;;;;;;;;5047540;28;20036;-77
2022/12/18 04:07:04;;;;;;;5.22;2.67;;;;;;;;;;5037030;28;20075;-79
2022/12/18 04:09:31;;;;;;;5.75;3.20;;;;;;;;;;5051028;28;20033;-79
2022/12/18 04:11:57;;;;;;;9.73;3.03;;;;;;;;;;5045788;28;20029;-78
2022/12/18 04:14:23;;;;;;;4.00;2.72;;;;;;;;;;5060441;28;20033;-76
2022/12/18 04:16:49;;;;;;;3.80;2.90;;;;;;;;;;5043545;28;20053;-76
2022/12/18 04:19:16;;;;;;;4.15;2.88;;;;;;;;;;5040866;28;20042;-77
2022/12/18 04:21:42;;;;;;;4.65;2.88;;;;;;;;;;5044333;28;20033;-75
2022/12/18 04:24:08;;;;;;;6.28;2.72;;;;;;;;;;5050407;28;20085;-75
2022/12/18 04:26:34;;;;;;;4.40;3.30;;;;;;;;;;5043869;28;20017;-75
2022/12/18 04:29:00;;;;;;;12.10;4.50;;;;;;;;;;5046309;28;20059;-76
2022/12/18 04:31:26;;;;;;;6.85;3.92;;;;;;;;;;5043093;28;20053;-76
2022/12/18 04:33:52;;;;;;;11.32;4.25;;;;;;;;;;5038933;28;20030;-75
2022/12/18 04:36:19;;;;;;;5.82;3.40;;;;;;;;;;5053910;28;20116;-78
2022/12/18 04:38:45;;;;;;;6.53;3.90;;;;;;;;;;5042614;28;20038;-75
2022/12/18 04:41:14;;;;;;;9.00;3.97;;;;;;;;;;5048362;28;20036;-79
2022/12/18 04:43:40;;;;;;;11.55;5.22;;;;;;;;;;5053730;28;20060;-75
2022/12/18 04:46:06;;;;;;;9.13;4.15;;;;;;;;;;5045629;28;20026;-77
2022/12/18 04:48:33;;;;;;;9.05;4.82;;;;;;;;;;5042642;28;20026;-76
2022/12/18 04:50:59;;;;;;;10.90;4.22;;;;;;;;;;5059027;28;20039;-76
2022/12/18 04:53:25;;;;;;;10.90;5.35;;;;;;;;;;5048096;28;20055;-76
2022/12/18 04:55:51;;;;;;;10.70;3.72;;;;;;;;;;5043510;28;20143;-78
2022/12/18 04:58:17;;;;;;;6.97;4.03;;;;;;;;;;5046689;28;20025;-76
2022/12/18 05:00:44;;;;;;;7.60;4.13;;;;;;;;;;5034711;28;20049;-77
2022/12/18 05:03:10;;;;;;;10.18;4.15;;;;;;;;;;5044467;28;20036;-79
2022/12/18 05:05:36;;;;;;;9.50;4.55;;;;;;;;;;5042331;28;20033;-75
2022/12/18 05:08:02;;;;;;;6.78;4.10;;;;;;;;;;5048797;28;20026;-79
2022/12/18 05:10:28;;;;;;;6.75;4.88;;;;;;;;;;5052021;28;20104;-78
2022/12/18 05:13:00;;;;;;;7.30;4.72;;;;;;;;;;5027979;28;20045;-77
2022/12/18 05:15:27;;;;;;;12.40;4.45;;;;;;;;;;5061660;28;20051;-77
2022/12/18 05:17:53;;;;;;;12.15;4.70;;;;;;;;;;5056844;28;20039;-77
2022/12/18 05:20:19;;;;;;;7.22;4.20;;;;;;;;;;5041507;28;20025;-76
2022/12/18 05:22:45;;;;;;;6.15;3.40;;;;;;;;;;5042439;28;20108;-78
2022/12/18 05:25:11;;;;;;;8.93;3.90;;;;;;;;;;5041255;28;20040;-76
2022/12/18 05:27:38;;;;;;;6.47;3.60;;;;;;;;;;5029646;28;20026;-76
2022/12/18 05:30:04;;;;;;;9.05;3.70;;;;;;;;;;5046893;28;20033;-76
2022/12/18 05:32:30;;;;;;;10.25;4.55;;;;;;;;;;5033740;28;20031;-76
2022/12/18 05:34:57;;;;;;;8.35;2.97;;;;;;;;;;5029302;28;20021;-80
2022/12/18 05:37:23;;;;;;;8.90;3.45;;;;;;;;;;5044197;28;20112;-75
2022/12/18 05:39:49;;;;;;;8.63;3.22;;;;;;;;;;5047914;28;20021;-76
2022/12/18 05:42:15;;;;;;;6.88;3.42;;;;;;;;;;5035951;28;20028;-77
2022/12/18 05:44:41;;;;;;;6.20;3.75;;;;;;;;;;5058868;28;20087;-77
2022/12/18 05:47:07;;;;;;;6.53;2.97;;;;;;;;;;5039819;28;20025;-76
2022/12/18 05:49:33;;;;;;;6.55;3.20;;;;;;;;;;5046209;28;20021;-75
2022/12/18 05:52:00;;;;;;;4.65;2.70;;;;;;;;;;5045245;28;20065;-76
2022/12/18 05:54:27;;;;;;;3.05;2.75;;;;;;;;;;5041938;28;20030;-77
2022/12/18 05:56:54;;;;;;;6.45;3.03;;;;;;;;;;5046189;28;20029;-77
2022/12/18 05:59:20;;;;;;;6.60;3.50;;;;;;;;;;5049288;28;20025;-77
2022/12/18 06:01:46;;;;;;;3.90;2.70;;;;;;;;;;5043767;28;20216;-77
2022/12/18 06:04:12;;;;;;;4.22;3.30;;;;;;;;;;5046229;28;20017;-77
2022/12/18 06:06:38;;;;;;;5.40;2.70;;;;;;;;;;5044997;28;20024;-77
2022/12/18 06:09:09;;;;;;;6.97;3.13;;;;;;;;;;5026818;28;20033;-77
2022/12/18 06:11:36;;;;;;;8.25;3.10;;;;;;;;;;5050279;28;20060;-76
2022/12/18 06:14:02;;;;;;;4.35;3.13;;;;;;;;;;5053053;28;20453;-75
2022/12/18 06:16:29;;;;;;;4.35;3.42;;;;;;;;;;5051203;28;20036;-75
2022/12/18 06:19:02;;;;;;;6.28;3.50;;;;;;;;;;5062814;28;20043;-77
2022/12/18 06:21:29;;;;;;;5.25;2.92;;;;;;;;;;5042810;28;20021;-78
2022/12/18 06:23:55;;;;;;;6.28;3.00;;;;;;;;;;5026161;28;20029;-76
2022/12/18 06:26:21;;;;;;;3.72;2.88;;;;;;;;;;5043391;28;20013;-76
2022/12/18 06:28:48;;;;;;;8.13;4.82;;;;;;;;;;5043684;28;20036;-77
2022/12/18 06:31:14;;;;;;;10.98;3.70;;;;;;;;;;5046669;28;20455;-77
2022/12/18 06:33:40;;;;;;;6.80;3.05;;;;;;;;;;5056779;28;20051;-75
2022/12/18 06:36:10;;;;;;;6.60;3.20;;;;;;;;;;5043339;28;20081;-77
2022/12/18 06:38:37;;;;;;;5.40;3.00;;;;;;;;;;5035949;28;20026;-76
2022/12/18 06:41:07;;;;;;;3.95;2.72;;;;;;;;;;5039022;28;20014;-75
2022/12/18 06:43:33;;;;;;;7.45;3.28;;;;;;;;;;5032546;28;20018;-78
2022/12/18 06:46:00;;;;;;;5.28;2.75;;;;;;;;;;5023899;28;20025;-77
2022/12/18 06:48:26;;;;;;;5.55;2.72;;;;;;;;;;5048894;28;20033;-76
2022/12/18 06:50:52;;;;;;;4.03;2.92;;;;;;;;;;5039389;28;20030;-79
2022/12/18 06:53:18;;;;;;;4.05;3.00;;;;;;;;;;5038586;28;20032;-77
2022/12/18 06:55:44;;;;;;;5.10;2.22;;;;;;;;;;5047476;28;20025;-78
2022/12/18 06:58:10;;;;;;;6.43;3.10;;;;;;;;;;5041879;28;20038;-77
2022/12/18 07:00:36;;;;;;;8.73;3.45;;;;;;;;;;5034825;28;20041;-80
2022/12/18 07:03:03;;;;;;;3.25;2.30;;;;;;;;;;5045357;28;20033;-77
2022/12/18 07:05:29;;;;;;;5.25;2.78;;;;;;;;;;5032027;28;20021;-75
2022/12/18 07:07:55;;;;;;;2.97;2.40;;;;;;;;;;5037997;28;20089;-76
2022/12/18 07:10:21;;;;;;;6.80;3.63;;;;;;;;;;5038891;28;20029;-77
2022/12/18 07:12:47;;;;;;;3.97;2.53;;;;;;;;;;5041266;28;20055;-77
2022/12/18 07:15:13;;;;;;;3.75;2.50;;;;;;;;;;5038265;28;20028;-76
2022/12/18 07:17:39;;;;;;;5.88;2.83;;;;;;;;;;5023788;28;20041;-76
2022/12/18 07:20:06;;;;;;;9.68;3.03;;;;;;;;;;5038106;28;20037;-76
2022/12/18 07:22:32;;;;;;;5.22;3.08;;;;;;;;;;5030986;28;20389;-79
2022/12/18 07:24:58;;;;;;;5.95;2.42;;;;;;;;;;5035106;28;20021;-78
2022/12/18 07:27:24;;;;;;;6.57;2.78;;;;;;;;;;5030596;28;20029;-78
2022/12/18 07:29:50;;;;;;;4.03;2.80;;;;;;;;;;5034600;28;20534;-78
2022/12/18 07:32:16;;;;;;;7.05;2.90;;;;;;;;;;5026939;28;20049;-76
2022/12/18 07:34:42;;;;;;;6.70;4.10;;;;;;;;;;5039633;28;20037;-78
2022/12/18 07:37:08;;;;;;;9.80;3.55;;;;;;;;;;5042380;28;20372;-78
2022/12/18 07:39:34;;;;;;;6.88;3.58;;;;;;;;;;5048496;28;20085;-77
2022/12/18 07:44:46;;;;;;;6.85;3.75;;;;;;;;;;5034711;28;20084;-78
2022/12/18 07:47:12;;;;;;;10.55;4.57;;;;;;;;;;5042651;28;20494;-80
2022/12/18 07:49:38;;;;;;;6.32;3.38;;;;;;;;;;5047262;28;20386;-78
2022/12/18 07:52:05;;;;;;;7.72;4.10;;;;;;;;;;5034966;28;20057;-77
2022/12/18 07:54:31;;;;;;;9.57;4.47;;;;;;;;;;5043106;28;20039;-76
2022/12/18 07:56:57;;;;;;;8.80;3.80;;;;;;;;;;5042668;28;20391;-78
2022/12/18 07:59:23;;;;;;;7.32;4.05;;;;;;;;;;5043431;28;20034;-76
2022/12/18 08:01:49;;;;;;;7.10;4.15;;;;;;;;;;5040051;28;20803;-77
2022/12/18 08:04:15;;;;;;;5.40;3.80;;;;;;;;;;5040269;28;20037;-76
2022/12/18 08:06:41;;;;;;;8.85;4.53;;;;;;;;;;5038513;28;20029;-76
2022/12/18 08:09:08;;;;;;;7.97;4.05;;;;;;;;;;5033266;28;20025;-77
2022/12/18 08:11:34;;;;;;;8.32;4.00;;;;;;;;;;5020734;28;20029;-78
2022/12/18 08:14:00;;;;;;;7.82;3.65;;;;;;;;;;5037482;28;20051;-78
2022/12/18 08:16:26;;;;;;;8.07;4.18;;;;;;;;;;5045324;28;20040;-77
2022/12/18 08:18:53;;;;;;;9.80;4.45;;;;;;;;;;5037053;28;20092;-77
2022/12/18 08:21:22;;;;;;;7.32;4.10;;;;;;;;;;5042580;28;20017;-78
2022/12/18 08:23:48;;;;;;;6.82;4.00;;;;;;;;;;5040973;28;20032;-77
2022/12/18 08:26:15;;;;;;;5.78;3.22;;;;;;;;;;5040425;28;20095;-80
2022/12/18 08:28:41;;;;;;;5.18;3.13;;;;;;;;;;5045185;28;20037;-80
2022/12/18 08:31:08;;;;;;;5.93;3.95;;;;;;;;;;5046256;28;20060;-78
2022/12/18 08:33:34;;;;;;;7.60;4.68;;;;;;;;;;5029096;28;20113;-80
2022/12/18 08:36:01;;;;;;;7.72;3.85;;;;;;;;;;5028733;28;20043;-77
2022/12/18 08:38:27;;;;;;;10.93;4.82;;;;;;;;;;5022887;28;20136;-79
2022/12/18 08:41:03;;;;;;;6.15;4.45;;;;;;;;;;5044208;28;20030;-77
2022/12/18 08:46:17;;;;;;;8.30;4.95;;;;;;;;;;5039819;28;20082;-76
2022/12/18 08:48:43;;;;;;;9.60;4.93;;;;;;;;;;5047866;28;20026;-76
2022/12/18 08:51:09;;;;;;;8.80;4.25;;;;;;;;;;5037897;28;20030;-78
2022/12/18 08:53:36;;;;;;;10.23;4.57;;;;;;;;;;5047938;28;20030;-77
2022/12/18 08:56:02;;;;;;;4.35;3.08;;;;;;;;;;5054538;28;20030;-76
2022/12/18 08:58:29;;;;;;;5.90;4.03;;;;;;;;;;5048094;28;20025;-76
2022/12/18 09:01:00;;;;;;;6.43;3.45;;;;;;;;;;5046427;28;20419;-77
2022/12/18 09:03:26;;;;;;;6.10;4.30;;;;;;;;;;5053378;28;20081;-77
2022/12/18 09:05:52;;;;;;;5.45;3.90;;;;;;;;;;5048506;28;20026;-78
2022/12/18 09:08:18;;;;;;;5.25;4.32;;;;;;;;;;5047207;28;20035;-77
2022/12/18 09:10:45;;;;;;;6.63;3.75;;;;;;;;;;5046189;28;20033;-78
2022/12/18 09:13:12;;;;;;;4.50;3.35;;;;;;;;;;5057347;28;20031;-78
2022/12/18 09:15:45;;;;;;;4.78;3.53;;;;;;;;;;5049720;28;20061;-79
2022/12/18 09:18:12;;;;;;;4.55;3.33;;;;;;;;;;5039136;28;20061;-78
2022/12/18 09:20:38;;;;;;;5.95;3.50;;;;;;;;;;5031654;28;20085;-78
2022/12/18 09:23:05;;;;;;;4.25;3.55;;;;;;;;;;5028311;28;20037;-78
2022/12/18 09:25:32;;;;;;;5.22;3.20;;;;;;;;;;5029561;28;20455;-78
2022/12/18 09:28:19;;;;;;;7.25;3.90;;;;;;;;;;5027404;28;20025;-77
2022/12/18 09:30:47;;;;;;;6.90;3.30;;;;;;;;;;5028990;28;20582;-78
2022/12/18 09:33:13;;;;;;;2.97;2.35;;;;;;;;;;5027367;28;20038;-79
2022/12/18 09:35:40;;;;;;;3.45;2.50;;;;;;;;;;5028561;28;20068;-78
2022/12/18 09:38:08;;;;;;;2.97;2.47;;;;;;;;;;5026735;28;20061;-80
2022/12/18 09:40:40;;;;;;;4.10;2.50;;;;;;;;;;5010724;28;20032;-78
2022/12/18 09:43:09;;;;;;;2.80;2.28;;;;;;;;;;5028234;28;20018;-78
2022/12/18 09:45:41;;;;;;;6.90;2.67;;;;;;;;;;5033723;28;20033;-80
2022/12/18 09:48:10;;;;;;;3.60;2.30;;;;;;;;;;5022970;28;20706;-78
2022/12/18 09:50:39;;;;;;;2.83;2.33;;;;;;;;;;5024048;28;20044;-78
2022/12/18 09:53:18;;;;;;;4.38;2.42;;;;;;;;;;5023614;28;20482;-79
2022/12/18 09:55:46;;;;;;;2.78;2.40;;;;;;;;;;5024311;28;20029;-77
2022/12/18 09:58:14;;;;;;;2.30;2.10;;;;;;;;;;5021920;28;20304;-78
2022/12/18 10:00:44;;;;;;;2.90;2.10;;;;;;;;;;5024673;28;20056;-77
2022/12/18 10:03:11;;;;;;;2.63;1.92;;;;;;;;;;5019987;28;20081;-77
2022/12/18 10:05:37;;;;;;;3.10;2.10;;;;;;;;;;5024181;28;20071;-76
2022/12/18 10:08:10;;;;;;;2.67;1.90;;;;;;;;;;5020857;28;20045;-77
2022/12/18 10:10:42;;;;;;;2.88;2.10;;;;;;;;;;5025439;28;20028;-78
2022/12/18 10:13:17;;;;;;;3.17;1.95;;;;;;;;;;5028370;28;20033;-78
2022/12/18 10:15:47;;;;;;;3.78;2.28;;;;;;;;;;5022275;28;20021;-76
2022/12/18 10:18:19;;;;;;;2.00;1.80;;;;;;;;;;5004505;28;20030;-77
2022/12/18 10:20:45;;;;;;;2.53;1.90;;;;;;;;;;5008650;28;20120;-77
2022/12/18 10:23:20;;;;;;;2.78;2.08;;;;;;;;;;5022863;28;20057;-78
2022/12/18 10:26:09;;;;;;;2.83;2.25;;;;;;;;;;5006891;28;20071;-78
2022/12/18 10:28:37;;;;;;;3.88;2.33;;;;;;;;;;5021820;28;20021;-78
2022/12/18 10:31:05;;;;;;;2.47;2.17;;;;;;;;;;5023373;28;20030;-77
2022/12/18 10:33:33;;;;;;;4.28;3.13;;;;;;;;;;5020454;28;20388;-78
2022/12/18 10:36:00;;;;;;;3.08;2.55;;;;;;;;;;5023410;28;20030;-77
2022/12/18 10:38:27;;;;;;;2.83;2.50;;;;;;;;;;5021069;28;20237;-77
2022/12/18 10:41:01;;;;;;;2.28;1.70;;;;;;;;;;5023866;28;20028;-77
2022/12/18 10:43:28;;;;;;;6.70;3.78;;;;;;;;;;5022656;28;20030;-77
2022/12/18 10:46:01;;;;;;;3.90;2.95;;;;;;;;;;5022383;28;20026;-78
2022/12/18 10:48:27;;;;;;;7.05;3.60;;;;;;;;;;5019431;28;20033;-77
2022/12/18 10:50:53;;;;;;;2.50;1.90;;;;;;;;;;5021808;28;20040;-77
2022/12/18 10:53:21;;;;;;;3.25;2.20;;;;;;;;;;5022342;28;20032;-76
2022/12/18 10:55:47;;;;;;;5.90;3.33;;;;;;;;;;5021294;28;20025;-76
2022/12/18 10:58:21;;;;;;;5.30;3.00;;;;;;;;;;5019659;28;20082;-80
2022/12/18 11:01:02;;;;;;;3.00;2.17;;;;;;;;;;5021540;28;20044;-79
2022/12/18 11:03:31;;;;;;;1.92;1.80;;;;;;;;;;5019403;28;20419;-79
2022/12/18 11:06:05;;;;;;;2.65;2.38;;;;;;;;;;5023340;28;20017;-79
2022/12/18 11:08:31;;;;;;;2.50;2.30;;;;;;;;;;5029248;28;20040;-76
2022/12/18 11:10:58;;;;;;;3.60;2.75;;;;;;;;;;5010278;28;20565;-76
2022/12/18 11:13:25;;;;;;;2.20;1.90;;;;;;;;;;5028020;28;20116;-77
2022/12/18 11:15:52;;;;;;;3.78;1.80;;;;;;;;;;5031038;28;20052;-76
2022/12/18 11:18:25;;;;;;;3.42;2.58;;;;;;;;;;5026396;28;20388;-77
2022/12/18 11:20:59;;;;;;;5.00;4.50;;;;;;;;;;5028034;28;20021;-78
2022/12/18 11:23:26;;;;;;;5.93;4.15;;;;;;;;;;5008027;28;20025;-78
2022/12/18 11:25:57;;;;;;;3.75;2.70;;;;;;;;;;5024492;28;20014;-75
2022/12/18 11:28:35;;;;;;;6.15;3.53;;;;;;;;;;5038995;28;20847;-78
2022/12/18 11:31:20;;;;;;;8.80;5.18;;;;;;;;;;5031995;28;20025;-79
2022/12/18 11:33:55;;;;;;;5.93;4.82;;;;;;;;;;5026987;28;20029;-77
2022/12/18 11:36:22;;;;;;;10.18;5.78;;;;;;;;;;5022537;28;20422;-78
2022/12/18 11:38:49;;;;;;;4.85;4.25;;;;;;;;;;5008399;28;20301;-76
2022/12/18 11:41:21;;;;;;;5.32;4.18;;;;;;;;;;5030881;28;20049;-77
2022/12/18 11:43:57;;;;;;;6.28;3.97;;;;;;;;;;5026189;28;20038;-78
2022/12/18 11:46:27;;;;;;;6.45;5.35;;;;;;;;;;5025130;28;20025;-76
2022/12/18 11:48:57;;;;;;;9.95;5.25;;;;;;;;;;5027046;28;20021;-78
2022/12/18 11:51:28;;;;;;;4.88;3.92;;;;;;;;;;5033707;28;20026;-77
2022/12/18 11:53:54;;;;;;;4.05;3.58;;;;;;;;;;5030966;28;20018;-78
2022/12/18 11:56:35;;;;;;;4.15;2.85;;;;;;;;;;5010539;28;20085;-76
2022/12/18 11:59:12;;;;;;;10.82;7.45;;;;;;;;;;5029118;28;20029;-77
2022/12/18 12:01:43;;;;;;;9.77;5.75;;;;;;;;;;5029561;28;20045;-79
2022/12/18 12:04:22;;;;;;;5.35;3.65;;;;;;;;;;5011305;28;20076;-78
2022/12/18 12:06:54;;;;;;;2.45;2.10;;;;;;;;;;5016938;28;20687;-76
2022/12/18 12:09:39;;;;;;;7.30;4.05;;;;;;;;;;5025059;28;20117;-79
2022/12/18 12:12:24;;;;;;;2.92;2.30;;;;;;;;;;5012267;28;20032;-77
2022/12/18 12:14:50;;;;;;;7.15;3.97;;;;;;;;;;5025384;28;20021;-78
2022/12/18 12:17:23;;;;;;;4.97;3.95;;;;;;;;;;5025434;28;20060;-77
2022/12/18 12:19:49;;;;;;;4.20;3.13;;;;;;;;;;5024448;28;20559;-79
2022/12/18 12:22:34;;;;;;;2.50;2.10;;;;;;;;;;5025745;28;20105;-77
2022/12/18 12:25:00;;;;;;;2.95;2.33;;;;;;;;;;5026761;28;20041;-77
2022/12/18 12:27:49;;;;;;;3.72;2.45;;;;;;;;;;5028562;28;20029;-77
2022/12/18 12:30:20;;;;;;;3.50;2.47;;;;;;;;;;5015633;28;20472;-77
2022/12/18 12:32:52;;;;;;;2.65;2.42;;;;;;;;;;5010645;28;20033;-77
2022/12/18 12:35:37;;;;;;;2.70;1.95;;;;;;;;;;5025381;28;20037;-77
2022/12/18 12:38:21;;;;;;;3.10;2.53;;;;;;;;;;5024673;28;20125;-77
2022/12/18 12:40:50;;;;;;;2.60;1.90;;;;;;;;;;5023950;28;20100;-78
2022/12/18 12:43:28;;;;;;;2.65;2.42;;;;;;;;;;5026103;28;20036;-77
2022/12/18 12:45:57;;;;;;;2.20;2.00;;;;;;;;;;5027105;28;22258;-77
2022/12/18 12:48:23;;;;;;;2.83;2.17;;;;;;;;;;5033257;28;20176;-78
2022/12/18 12:50:50;;;;;;;3.13;1.92;;;;;;;;;;5027655;28;20029;-77
2022/12/18 12:53:22;;;;;;;2.45;1.90;;;;;;;;;;5028686;28;20037;-78
2022/12/18 12:55:48;;;;;;;2.13;1.90;;;;;;;;;;5026272;28;20104;-78
2022/12/18 12:58:14;;;;;;;2.22;2.00;;;;;;;;;;5026771;28;20032;-78
2022/12/18 13:00:44;;;;;;;1.60;1.50;;;;;;;;;;5026953;28;20044;-78
2022/12/18 13:03:25;;;;;;;1.80;1.70;;;;;;;;;;5024631;28;20049;-80
2022/12/18 13:05:56;;;;;;;3.05;1.85;;;;;;;;;;5022272;28;20029;-78
2022/12/18 13:08:26;;;;;;;1.83;1.70;;;;;;;;;;5024440;28;20123;-80
2022/12/18 13:12:55;;;;;;;1.80;1.67;;;;;;;;;;5027235;28;20053;-78
2022/12/18 13:13:55;;;;;;;2.05;1.70;;;;;;;;;;5024177;28;20037;-78
2022/12/18 13:16:22;;;;;;;9.50;6.07;;;;;;;;;;5027714;28;20032;-78
2022/12/18 13:18:53;;;;;;;9.65;5.43;;;;;;;;;;5024754;28;20039;-77
2022/12/18 13:21:23;;;;;;;4.28;2.15;;;;;;;;;;5023510;28;20113;-78
2022/12/18 13:23:50;;;;;;;3.38;2.10;;;;;;;;;;5026322;28;20416;-78
2022/12/18 13:26:20;;;;;;;2.28;1.90;;;;;;;;;;5006098;28;20082;-75
2022/12/18 13:28:46;;;;;;;3.13;1.63;;;;;;;;;;5026338;28;20977;-78
2022/12/18 13:31:35;;;;;;;1.50;1.40;;;;;;;;;;5023785;28;20025;-77
2022/12/18 13:34:10;;;;;;;1.65;1.55;;;;;;;;;;5020694;28;20044;-77
2022/12/18 13:36:36;;;;;;;1.88;1.50;;;;;;;;;;5026541;28;20025;-77
2022/12/18 13:39:11;;;;;;;2.10;1.88;;;;;;;;;;5005096;28;20419;-77
2022/12/18 13:41:39;;;;;;;1.70;1.60;;;;;;;;;;5025294;28;20061;-78
2022/12/18 13:44:11;;;;;;;6.85;3.53;;;;;;;;;;5023980;28;20030;-78
2022/12/18 13:46:44;;;;;;;3.40;2.13;;;;;;;;;;5021923;28;20565;-78
2022/12/18 13:49:13;;;;;;;4.35;3.95;;;;;;;;;;5024117;28;20528;-78
2022/12/18 13:51:47;;;;;;;3.42;2.50;;;;;;;;;;5023170;28;20518;-78
2022/12/18 13:54:36;;;;;;;2.72;2.33;;;;;;;;;;5024848;28;20052;-78
2022/12/18 13:57:04;;;;;;;2.22;2.03;;;;;;;;;;4995043;28;20052;-78
2022/12/18 13:59:41;;;;;;;2.45;2.25;;;;;;;;;;5021772;28;20061;-78
2022/12/18 14:02:14;;;;;;;3.20;2.30;;;;;;;;;;5020062;28;20458;-77
2022/12/18 14:04:40;;;;;;;3.78;2.80;;;;;;;;;;5023080;28;20025;-78
2022/12/18 14:07:27;;;;;;;2.72;2.30;;;;;;;;;;5028959;28;20294;-78
2022/12/18 14:09:56;;;;;;;3.72;2.40;;;;;;;;;;5024222;28;20030;-77
2022/12/18 14:15:14;;;;;;;8.95;4.35;;;;;;;;;;5024260;28;20099;-78
2022/12/18 14:17:40;;;;;;;3.70;2.42;;;;;;;;;;5025667;28;20507;-78
2022/12/18 14:20:13;;;;;;;6.30;4.03;;;;;;;;;;5025866;28;20025;-78
2022/12/18 14:22:43;;;;;;;4.07;2.72;;;;;;;;;;5024585;28;20104;-77
2022/12/18 14:25:15;;;;;;;9.07;6.28;;;;;;;;;;5023445;28;20022;-77
2022/12/18 14:27:43;;;;;;;11.63;9.27;;;;;;;;;;5024930;28;20031;-78
2022/12/18 14:30:27;;;;;;;10.02;6.47;;;;;;;;;;5026550;28;20029;-77
2022/12/18 14:33:20;;;;;;;6.07;4.13;;;;;;;;;;5026724;28;20099;-78
2022/12/18 14:36:12;;;;;;;13.93;7.78;;;;;;;;;;5023330;28;20045;-77
2022/12/18 14:38:39;;;;;;;7.88;5.57;;;;;;;;;;5021621;28;20073;-78
2022/12/18 14:41:06;;;;;;;12.23;7.88;;;;;;;;;;5030778;28;20033;-78
2022/12/18 14:43:36;;;;;;;22.58;13.95;;;;;;;;;;5019053;28;20036;-78
2022/12/18 14:46:04;;;;;;;13.63;10.43;;;;;;;;;;5028530;28;20661;-78
2022/12/18 14:48:40;;;;;;;24.77;16.38;;;;;;;;;;5022402;28;20091;-78
2022/12/18 14:51:18;;;;;;;10.10;6.85;;;;;;;;;;5023515;28;20060;-78
2022/12/18 14:53:45;;;;;;;14.60;9.82;;;;;;;;;;5004945;28;20031;-79
2022/12/18 14:56:16;;;;;;;17.17;11.45;;;;;;;;;;5024808;28;20033;-78
2022/12/18 14:58:47;;;;;;;16.65;11.93;;;;;;;;;;5008801;28;20598;-78
2022/12/18 15:01:30;;;;;;;16.80;11.60;;;;;;;;;;5023096;28;20045;-78
2022/12/18 15:03:57;;;;;;;14.63;10.45;;;;;;;;;;5027511;28;20029;-78
2022/12/18 15:06:34;;;;;;;10.27;6.95;;;;;;;;;;5020915;28;20026;-77
2022/12/18 15:09:01;;;;;;;9.80;8.45;;;;;;;;;;5026959;28;20025;-78